KDBQ/DBQ METAR and TAF weather

Enter ICAO airport designator
Station Type Date Time Source
KDBQ METAR 2018/04/20 07:53 UTC NOAA

KDBQ 200753Z AUTO 00000KT 10SM CLR M01/M06 A3047 RMK AO2 SLP327 T10061056


Station Type Date Time Source
KDBQ Decoded METAR 2018/04/20 07:53 UTC NOAA

DUBUQUE REGIONAL AIRPORT, IA, United States (KDBQ) 42-24N 90-42W 326M
Apr 20, 2018 - 03:53 AM EDT / 2018.04.20 0753 UTC
Wind: Calm:0
Visibility: 10 mile(s):0
Sky conditions: clear
Temperature: 30.9 F (-0.6 C)
Dew Point: 21.9 F (-5.6 C)
Relative Humidity: 68%
Pressure (altimeter): 30.47 in. Hg (1031 hPa)
ob: KDBQ 200753Z AUTO 00000KT 10SM CLR M01/M06 A3047 RMK AO2 SLP327 T10061056
cycle: 8

Station Type Date Time Source
KDBQ TAF 2018/04/20 06:24 UTC NOAA

TAF
AMD KDBQ 200621Z 2006/2106 35003KT P6SM SKC
FM201400 VRB03KT 6SM BR SCT250
FM201500 09004KT P6SM SCT250


Example: see airport list